Latest Weather Observations for St Lawrence

IDQ60801

Issued at 9:02 am EST Tuesday 30 June 2015 (issued every 30 minutes, with the page automatically refreshed every 10 minutes)

About weather observations | Map of weather stations | Latest weather observations for QLD | Other Formats
Station Details ID: 033210 Name: ST LAWRENCE Lat: -22.35 Lon: 149.52 Height: 9.19 m
Data from the previous 72 hours. | See also: Recent months at St Lawrence
Date/Time
EST
Temp
°C
App
Temp
°C
Dew
Point
Rel
Hum
%
Delta-T
°C
Wind Press
QNH
hPa
Press
MSL
hPa
Rain
since 9 am
mm
Dir
 
Spd
km/h
Gust
km/h
Spd
kts
Gust
kts
30/09:00am 20.2 18.3 15.2 73 2.9 SSE 19 24 10 13 1024.6 1024.6 0.4
30/08:30am 19.6 19.2 15.3 76 2.5 S 11 20 6 11 1024.4 1024.4 0.4
30/08:00am 18.7 18.4 15.4 81 1.9 S 11 19 6 10 1024.3 1024.3 0.4
30/07:30am 17.9 17.5 15.3 85 1.5 S 11 15 6 8 1023.9 1023.9 0.4
30/07:00am 17.8 17.5 15.4 86 1.4 S 11 15 6 8 1023.7 1023.7 0.4
30/06:30am 17.7 17.4 15.5 87 1.3 S 11 15 6 8 1023.3 1023.3 0.4
30/06:00am 17.7 17.5 15.7 88 1.2 S 11 19 6 10 1023.0 1023.0 0.4
30/05:30am 17.6 17.8 15.8 89 1.1 S 9 15 5 8 1022.7 1022.7 0.4
30/05:00am 17.5 17.3 15.8 90 1.0 S 11 13 6 7 1022.7 1022.7 0.4
30/04:30am 17.4 17.3 15.9 91 0.9 S 11 17 6 9 1022.6 1022.6 0.4
30/04:00am 17.4 17.3 15.9 91 0.9 S 11 17 6 9 1022.6 1022.6 0.4
30/03:30am 17.2 17.1 16.1 93 0.7 SSE 11 15 6 8 1022.5 1022.5 0.4
30/03:00am 16.7 17.3 15.7 94 0.6 S 7 11 4 6 1022.6 1022.6 0.4
30/02:30am 16.7 17.4 15.6 93 0.6 SW 6 7 3 4 1022.8 1022.8 0.4
30/02:00am 17.3 18.0 15.6 90 1.0 S 6 7 3 4 1022.6 1022.6 0.4
30/01:30am 17.9 18.6 16.1 89 1.1 SE 7 13 4 7 1023.0 1023.0 0.4
30/01:00am 18.4 18.8 16.4 88 1.2 SE 9 13 5 7 1023.6 1023.6 0.4
30/12:30am 18.1 19.8 16.3 89 1.1 S 2 7 1 4 1024.1 1024.1 0.4
30/12:00am 18.2 19.1 16.2 88 1.2 S 6 9 3 5 1023.9 1023.9 0.4
 
Date/Time
EST
Temp
°C
App
Temp
°C
Dew
Point
Rel
Hum
%
Delta-T
°C
Wind Press
QNH
hPa
Press
MSL
hPa
Rain
since 9 am
mm
Dir
 
Spd
km/h
Gust
km/h
Spd
kts
Gust
kts
29/11:30pm 18.3 18.7 16.3 88 1.2 S 9 15 5 8 1024.1 1024.1 0.4
29/11:00pm 18.5 19.0 16.5 88 1.2 S 9 13 5 7 1024.4 1024.4 0.4
29/10:30pm 18.7 19.2 16.5 87 1.3 S 9 13 5 7 1024.4 1024.4 0.4
29/10:00pm 18.7 19.1 16.3 86 1.4 S 9 11 5 6 1024.5 1024.5 0.4
29/09:30pm 18.9 19.3 16.3 85 1.6 SSE 9 13 5 7 1024.5 1024.5 0.4
29/09:00pm 19.0 19.4 16.4 85 1.6 S 9 11 5 6 1024.6 1024.6 0.4
29/08:30pm 19.7 20.1 16.2 80 2.1 SSE 9 13 5 7 1024.6 1024.6 0.4
29/08:00pm 19.8 20.8 16.4 81 2.0 SSE 6 9 3 5 1024.6 1024.6 0.4
29/07:30pm 19.8 20.8 16.8 83 1.8 SSE 7 11 4 6 1024.1 1024.1 0.4
29/07:00pm 20.5 21.2 16.1 76 2.6 SSE 7 11 4 6 1023.9 1023.9 0.4
29/06:30pm 20.8 21.2 16.2 75 2.8 ESE 9 13 5 7 1023.6 1023.6 0.4
29/06:00pm 20.8 21.7 16.6 77 2.5 ESE 7 11 4 6 1023.4 1023.4 0.4
29/05:30pm 20.8 21.7 16.6 77 2.5 SE 7 13 4 7 1023.2 1023.2 0.4
29/05:00pm 21.1 21.4 16.9 77 2.5 ESE 11 19 6 10 1022.8 1022.8 0.4
29/04:30pm 22.4 22.2 16.7 70 3.5 E 13 19 7 10 1022.5 1022.5 0.2
29/04:00pm 22.7 22.4 16.5 68 3.8 E 13 20 7 11 1022.5 1022.5 0.2
29/03:30pm 22.4 21.4 15.7 66 4.0 E 15 33 8 18 1022.6 1022.6 0.2
29/03:00pm 22.4 20.2 15.0 63 4.4 E 20 35 11 19 1022.4 1022.4 0.2
29/02:30pm 23.3 22.7 16.6 66 4.1 E 15 28 8 15 1022.5 1022.5 0.2
29/02:00pm 22.8 23.6 18.1 75 2.9 ESE 11 26 6 14 1022.7 1022.7 0.2
29/01:30pm 22.2 20.9 16.7 71 3.4 ESE 19 30 10 16 1023.0 1023.0 0.0
29/01:00pm 23.5 23.1 16.3 64 4.4 E 13 22 7 12 1023.3 1023.3 0.0
29/12:30pm 22.0 23.0 18.6 81 2.1 ESE 11 20 6 11 1023.9 1023.9 0.0
29/12:00pm 22.4 22.5 16.4 69 3.6 SE 11 17 6 9 1024.5 1024.5 0.0
29/11:30am 22.7 22.0 16.5 68 3.8 SE 15 22 8 12 1024.9 1024.9 0.0
29/11:00am 22.5 21.8 16.3 68 3.7 SE 15 24 8 13 1025.3 1025.3 0.0
29/10:30am 21.2 20.9 16.4 74 2.9 SSE 13 22 7 12 1025.8 1025.8 0.0
29/10:00am 20.2 20.6 16.4 79 2.3 SSE 9 15 5 8 1026.1 1026.1 0.0
29/09:30am 19.7 18.8 14.9 74 2.8 S 13 20 7 11 1026.3 1026.3 0.0
29/09:00am 19.6 18.7 14.8 74 2.8 S 13 20 7 11 1026.4 1026.4 0.0
29/08:30am 18.6 17.5 14.3 76 2.5 S 13 22 7 12 1026.2 1026.2 0.0
29/08:00am 18.0 16.8 14.1 78 2.2 S 13 22 7 12 1026.1 1026.1 0.0
29/07:30am 17.6 16.4 14.1 80 2.0 S 13 17 7 9 1025.5 1025.5 0.0
29/07:00am 17.3 16.1 14.0 81 1.9 S 13 19 7 10 1025.0 1025.0 0.0
29/06:30am 17.2 16.0 14.1 82 1.8 S 13 20 7 11 1024.5 1024.5 0.0
29/06:00am 17.1 16.0 14.2 83 1.6 S 13 19 7 10 1024.3 1024.3 0.0
29/05:30am 17.2 16.0 14.1 82 1.8 S 13 19 7 10 1024.1 1024.1 0.0
29/05:00am 17.3 16.6 14.2 82 1.8 S 11 20 6 11 1023.9 1023.9 0.0
29/04:30am 17.2 16.1 14.3 83 1.7 S 13 19 7 10 1023.8 1023.8 0.0
29/04:00am 16.9 15.8 14.2 84 1.5 S 13 17 7 9 1024.0 1024.0 0.0
29/03:30am 17.0 16.3 14.3 84 1.5 S 11 15 6 8 1024.1 1024.1 0.0
29/03:00am 17.3 16.2 14.2 82 1.8 S 13 20 7 11 1024.1 1024.1 0.0
29/02:30am 17.3 16.5 14.0 81 1.9 S 11 17 6 9 1024.2 1024.2 0.0
29/02:00am 17.1 16.3 14.0 82 1.8 S 11 15 6 8 1024.4 1024.4 0.0
29/01:30am 16.6 16.1 13.7 83 1.6 S 9 13 5 7 1024.5 1024.5 0.0
29/01:00am 16.7 16.2 13.8 83 1.6 S 9 13 5 7 1024.7 1024.7 0.0
29/12:30am 16.8 16.3 13.9 83 1.6 S 9 13 5 7 1024.9 1024.9 0.0
29/12:00am 16.6 16.2 14.1 85 1.4 S 9 13 5 7 1025.3 1025.3 0.0
 
Date/Time
EST
Temp
°C
App
Temp
°C
Dew
Point
Rel
Hum
%
Delta-T
°C
Wind Press
QNH
hPa
Press
MSL
hPa
Rain
since 9 am
mm
Dir
 
Spd
km/h
Gust
km/h
Spd
kts
Gust
kts
28/11:30pm 16.4 16.5 13.9 85 1.4 S 6 9 3 5 1025.5 1025.5 0.0
28/11:00pm 17.6 17.7 14.5 82 1.8 S 7 11 4 6 1025.5 1025.5 0.0
28/10:30pm 17.7 17.8 14.4 81 1.9 S 7 9 4 5 1025.5 1025.5 0.0
28/10:00pm 18.8 19.2 14.7 77 2.4 S 6 7 3 4 1025.8 1025.8 0.0
28/09:30pm 19.3 19.9 15.2 77 2.4 SSE 6 9 3 5 1025.8 1025.8 0.0
28/09:00pm 19.1 19.6 15.0 77 2.4 SSW 6 9 3 5 1025.7 1025.7 0.0
28/08:30pm 20.2 19.9 15.4 74 2.8 SE 11 19 6 10 1025.6 1025.6 0.0
28/08:00pm 20.1 20.3 15.7 76 2.6 SE 9 17 5 9 1025.5 1025.5 0.0
28/07:30pm 20.0 20.4 15.4 75 2.7 SSE 7 13 4 7 1025.2 1025.2 0.0
28/07:00pm 20.2 20.3 15.4 74 2.8 SE 9 15 5 8 1025.0 1025.0 0.0
28/06:30pm 20.6 20.0 15.6 73 3.0 SE 13 20 7 11 1025.0 1025.0 0.0
28/06:00pm 20.8 20.2 15.6 72 3.1 SE 13 22 7 12 1024.7 1024.7 0.0
28/05:30pm 21.8 20.7 15.4 67 3.8 SSE 15 32 8 17 1024.2 1024.2 0.0
28/05:00pm 22.8 20.9 15.1 62 4.6 SE 19 35 10 19 1023.8 1023.8 0.0
28/04:30pm 24.1 22.5 15.9 60 5.0 SE 19 32 10 17 1023.5 1023.5 0.0
28/04:00pm 23.9 22.6 15.7 60 4.9 ESE 17 28 9 15 1023.5 1023.5 0.0
28/03:30pm 24.6 22.6 15.5 57 5.5 ESE 20 33 11 18 1023.3 1023.3 0.0
28/03:00pm 23.5 20.5 14.8 58 5.1 ESE 24 43 13 23 1023.3 1023.3 0.0
28/02:30pm 24.9 22.5 14.4 52 6.2 ESE 20 35 11 19 1023.2 1023.2 0.0
28/02:00pm 25.7 24.0 15.7 54 6.1 ESE 19 28 10 15 1023.2 1023.2 0.0
28/01:30pm 24.6 22.5 15.2 55 5.6 ESE 20 35 11 19 1023.4 1023.4 0.0
28/01:00pm 24.7 22.8 15.3 56 5.6 SE 19 32 10 17 1023.6 1023.6 0.0
28/12:30pm 24.7 22.8 15.1 55 5.8 ESE 19 28 10 15 1023.9 1023.9 0.0
28/12:00pm 24.7 23.2 15.3 56 5.6 ESE 17 24 9 13 1024.3 1024.3 0.0
28/11:30am 24.1 22.3 15.9 60 5.0 ESE 20 30 11 16 1024.7 1024.7 0.0
28/11:00am 22.5 22.3 15.6 65 4.1 S 11 19 6 10 1025.0 1025.0 0.0
28/10:30am 21.6 21.1 15.0 66 3.9 SSE 11 19 6 10 1025.3 1025.3 0.0
28/10:00am 22.1 21.1 15.5 66 3.9 SSE 15 26 8 14 1025.5 1025.5 0.0
28/09:30am 21.1 20.3 15.0 68 3.6 SSE 13 20 7 11 1025.6 1025.6 0.0
28/09:00am 20.2 18.9 14.8 71 3.1 S 15 20 8 11 1025.6 1025.6 1.0
28/08:30am 19.1 17.2 14.1 73 2.9 S 17 22 9 12 1025.6 1025.6 1.0
28/08:00am 18.4 16.9 14.3 77 2.3 S 15 20 8 11 1025.5 1025.5 1.0
28/07:30am 17.7 16.1 14.0 79 2.1 S 15 24 8 13 1025.3 1025.3 1.0
28/07:00am 17.3 16.1 14.0 81 1.9 S 13 20 7 11 1025.2 1025.2 1.0
28/06:30am 16.9 15.6 13.8 82 1.8 S 13 19 7 10 1025.0 1025.0 1.0
28/06:00am 17.1 15.8 13.8 81 1.9 S 13 22 7 12 1024.8 1024.8 1.0
28/05:30am 16.8 15.5 13.7 82 1.8 S 13 20 7 11 1024.7 1024.7 1.0
28/05:00am 16.8 15.6 13.9 83 1.6 S 13 19 7 10 1024.4 1024.4 1.0
28/04:30am 16.4 15.1 13.7 84 1.5 S 13 19 7 10 1024.4 1024.4 1.0
28/04:00am 16.8 15.5 13.7 82 1.7 S 13 24 7 13 1024.3 1024.3 1.0
28/03:30am 16.9 15.6 13.6 81 1.9 S 13 19 7 10 1024.3 1024.3 1.0
28/03:00am 17.4 16.6 13.9 80 2.0 S 11 17 6 9 1024.4 1024.4 1.0
28/02:30am 17.6 16.8 14.1 80 2.0 S 11 17 6 9 1024.6 1024.6 1.0
28/02:00am 17.5 17.2 14.4 82 1.8 S 9 13 5 7 1025.0 1025.0 1.0
28/01:30am 17.4 17.1 14.5 83 1.7 S 9 11 5 6 1025.1 1025.1 1.0
28/01:00am 17.4 17.1 14.5 83 1.7 S 9 13 5 7 1025.4 1025.4 0.8
28/12:30am 18.2 18.1 13.9 76 2.5 S 7 9 4 5 1025.5 1025.5 0.6
28/12:00am 18.4 17.9 13.7 74 2.7 S 9 13 5 7 1025.6 1025.6 0.6
 
Date/Time
EST
Temp
°C
App
Temp
°C
Dew
Point
Rel
Hum
%
Delta-T
°C
Wind Press
QNH
hPa
Press
MSL
hPa
Rain
since 9 am
mm
Dir
 
Spd
km/h
Gust
km/h
Spd
kts
Gust
kts
27/11:30pm 18.4 18.3 13.9 75 2.6 S 7 11 4 6 1025.6 1025.6 0.6
27/11:00pm 18.1 18.1 14.2 78 2.2 S 7 11 4 6 1026.0 1026.0 0.6
27/10:30pm 17.3 17.5 14.2 82 1.8 S 6 7 3 4 1026.1 1026.1 0.6
27/10:00pm 16.8 17.2 13.7 82 1.7 SSW 4 7 2 4 1026.0 1026.0 0.6
27/09:30pm 17.5 17.2 13.4 77 2.3 SW 7 9 4 5 1025.9 1025.9 0.6
27/09:00pm 18.5 18.5 14.2 76 2.5 S 7 13 4 7 1025.7 1025.7 0.6
27/08:30pm 19.0 19.0 14.3 74 2.7 SSE 7 11 4 6 1025.7 1025.7 0.6
27/08:00pm 19.5 19.7 14.7 74 2.8 SSE 7 11 4 6 1025.7 1025.7 0.6
27/07:30pm 19.8 20.0 14.6 72 3.0 S 7 9 4 5 1025.6 1025.6 0.6
27/07:00pm 20.5 20.3 14.8 70 3.3 SE 9 15 5 8 1025.3 1025.3 0.6
27/06:30pm 20.6 20.4 14.7 69 3.5 SE 9 15 5 8 1024.9 1024.9 0.6
27/06:00pm 20.9 20.1 15.2 70 3.4 SE 13 19 7 10 1024.5 1024.5 0.6
27/05:30pm 20.9 20.2 15.4 71 3.3 SE 13 26 7 14 1024.1 1024.1 0.6
27/05:00pm 20.8 19.9 15.8 73 3.0 ESE 15 28 8 15 1023.6 1023.6 0.6
27/04:30pm 20.1 20.2 16.5 80 2.2 ESE 11 26 6 14 1023.2 1023.2 0.6
27/04:00pm 24.1 22.6 14.2 54 5.8 ESE 15 26 8 14 1022.7 1022.7 0.0
27/03:30pm 24.2 23.0 14.0 53 6.0 SE 13 22 7 12 1022.5 1022.5 0.0
27/03:00pm 24.4 22.5 14.2 53 6.0 ESE 17 24 9 13 1022.5 1022.5 0.0
27/02:30pm 24.3 22.2 13.5 51 6.3 SE 17 32 9 17 1022.5 1022.5 0.0
27/02:00pm 25.1 22.9 13.3 48 6.9 SE 17 24 9 13 1022.7 1022.7 0.0
27/01:30pm 24.8 22.8 14.0 51 6.4 SE 17 32 9 17 1023.0 1023.0 0.0
27/01:00pm 24.4 22.5 14.2 53 6.0 ESE 17 30 9 16 1023.5 1023.5 0.0
27/12:30pm 24.0 22.1 14.1 54 5.8 ESE 17 26 9 14 1024.1 1024.1 0.0
27/12:00pm 23.3 21.4 14.3 57 5.3 SE 17 24 9 13 1024.4 1024.4 0.0
27/11:30am 23.6 21.7 14.3 56 5.5 ESE 17 26 9 14 1024.8 1024.8 0.0
27/11:00am 21.6 20.0 13.8 61 4.5 S 15 24 8 13 1025.4 1025.4 0.0
27/10:30am 21.4 20.1 13.6 61 4.5 SSE 13 22 7 12 1025.8 1025.8 0.0
27/10:00am 20.8 19.1 13.7 64 4.1 SSE 15 28 8 15 1026.2 1026.2 0.0
27/09:30am 19.4 17.5 13.1 67 3.6 S 15 24 8 13 1026.3 1026.3 0.0

Other Formats:

Comma delimited format used in spreadsheet applications
http://www.bom.gov.au/fwo/IDQ60801/IDQ60801.95369.axf

JavaScript Object Notation format (JSON) in row-major order
http://www.bom.gov.au/fwo/IDQ60801/IDQ60801.95369.json